createdAt,value
2022-11-17T00:01:34.571Z,10.64
2022-11-17T00:04:01.074Z,10.78
2022-11-17T00:06:27.763Z,10.96
2022-11-17T00:08:54.218Z,11.05
2022-11-17T00:11:20.734Z,10.97
2022-11-17T00:13:47.220Z,10.54
2022-11-17T00:16:15.024Z,10.31
2022-11-17T00:18:41.510Z,10.41
2022-11-17T00:21:12.575Z,10.65
2022-11-17T00:23:39.190Z,10.70
2022-11-17T00:26:06.101Z,10.73
2022-11-17T00:28:34.543Z,10.43
2022-11-17T00:31:01.269Z,10.59
2022-11-17T00:33:27.725Z,10.47
2022-11-17T00:35:55.050Z,10.36
2022-11-17T00:38:21.506Z,10.36
2022-11-17T00:40:47.980Z,10.44
2022-11-17T00:43:14.440Z,10.64
2022-11-17T00:45:40.994Z,10.67
2022-11-17T00:48:07.435Z,10.60
2022-11-17T00:50:33.871Z,10.73
2022-11-17T00:53:00.315Z,10.80
2022-11-17T00:55:26.840Z,10.73
2022-11-17T00:57:53.368Z,10.77
2022-11-17T01:00:20.204Z,10.89
2022-11-17T01:02:46.759Z,10.78
2022-11-17T01:05:13.318Z,10.75
2022-11-17T01:07:42.554Z,10.78
2022-11-17T01:10:09.677Z,10.72
2022-11-17T01:12:36.128Z,10.77
2022-11-17T01:15:02.641Z,10.77
2022-11-17T01:17:29.230Z,10.73
2022-11-17T01:19:55.710Z,10.46
2022-11-17T01:22:22.267Z,10.39
2022-11-17T01:24:48.739Z,10.49
2022-11-17T01:27:15.229Z,10.59
2022-11-17T01:29:41.671Z,10.71
2022-11-17T01:32:08.133Z,10.93
2022-11-17T01:34:34.643Z,11.04
2022-11-17T01:37:01.123Z,10.86
2022-11-17T01:39:28.631Z,11.00
2022-11-17T01:41:55.889Z,10.96
2022-11-17T01:44:43.826Z,10.97
2022-11-17T01:47:40.219Z,10.76
2022-11-17T01:50:09.177Z,10.39
2022-11-17T01:52:37.538Z,10.36
2022-11-17T01:55:04.664Z,10.54
2022-11-17T01:57:39.417Z,10.70
2022-11-17T02:00:07.852Z,10.73
2022-11-17T02:02:35.262Z,10.44
2022-11-17T02:05:17.492Z,10.40
2022-11-17T02:07:47.781Z,10.37
2022-11-17T02:10:15.900Z,10.47
2022-11-17T02:12:42.866Z,10.53
2022-11-17T02:15:09.779Z,10.44
2022-11-17T02:17:38.079Z,10.37
2022-11-17T02:20:17.010Z,10.43
2022-11-17T02:23:10.906Z,10.53
2022-11-17T02:26:03.670Z,10.35
2022-11-17T02:28:32.640Z,10.34
2022-11-17T02:31:26.936Z,10.28
2022-11-17T02:34:19.629Z,10.22
2022-11-17T02:36:59.584Z,10.22
2022-11-17T02:39:31.542Z,10.37
2022-11-17T02:42:07.815Z,10.47
2022-11-17T02:44:49.639Z,10.48
2022-11-17T02:47:20.299Z,10.46
2022-11-17T02:49:50.831Z,10.48
2022-11-17T02:52:17.982Z,10.51
2022-11-17T02:54:44.663Z,10.58
2022-11-17T02:57:30.851Z,10.64
2022-11-17T03:00:04.024Z,10.73
2022-11-17T03:02:41.318Z,10.84
2022-11-17T03:05:19.302Z,10.93
2022-11-17T03:08:00.579Z,11.04
2022-11-17T03:10:51.555Z,11.02
2022-11-17T03:13:46.252Z,10.95
2022-11-17T03:16:37.704Z,10.99
2022-11-17T03:19:28.853Z,10.88
2022-11-17T03:22:12.033Z,10.79
2022-11-17T03:24:42.373Z,10.66
2022-11-17T03:27:20.707Z,10.63
2022-11-17T03:29:50.184Z,10.71
2022-11-17T03:32:18.190Z,10.84
2022-11-17T03:34:54.632Z,10.98
2022-11-17T03:37:22.710Z,11.12
2022-11-17T03:39:52.991Z,11.20
2022-11-17T03:42:21.223Z,11.11
2022-11-17T03:44:51.170Z,11.11
2022-11-17T03:47:19.620Z,10.98
2022-11-17T03:50:09.883Z,10.97
2022-11-17T03:52:36.808Z,10.97
2022-11-17T03:55:04.216Z,10.86
2022-11-17T03:57:57.011Z,10.86
2022-11-17T04:00:23.508Z,10.98
2022-11-17T04:02:55.271Z,11.06
2022-11-17T04:05:21.789Z,11.10
2022-11-17T04:07:48.345Z,11.14
2022-11-17T04:10:17.205Z,11.27
2022-11-17T04:13:03.645Z,11.05
2022-11-17T04:15:40.365Z,11.15
2022-11-17T04:18:06.984Z,11.36
2022-11-17T04:20:33.519Z,11.53
2022-11-17T04:23:00.061Z,11.66
2022-11-17T04:25:26.546Z,11.72
2022-11-17T04:27:53.037Z,11.62
2022-11-17T04:30:23.061Z,11.66
2022-11-17T04:32:49.651Z,11.57
2022-11-17T04:35:16.144Z,11.81
2022-11-17T04:37:42.626Z,11.77
2022-11-17T04:40:09.787Z,11.68
2022-11-17T04:42:38.028Z,11.62
2022-11-17T04:45:04.943Z,11.70
2022-11-17T04:47:31.403Z,11.73
2022-11-17T04:49:57.875Z,11.58
2022-11-17T04:52:29.606Z,11.70
2022-11-17T04:54:59.878Z,11.69
2022-11-17T04:57:26.337Z,11.69
2022-11-17T04:59:52.967Z,11.69
2022-11-17T05:02:19.681Z,11.70
2022-11-17T05:04:49.059Z,11.77
2022-11-17T05:07:15.850Z,11.69
2022-11-17T05:09:42.416Z,11.62
2022-11-17T05:12:09.341Z,11.57
2022-11-17T05:14:35.889Z,11.25
2022-11-17T05:17:08.624Z,11.33
2022-11-17T05:19:46.827Z,11.02
2022-11-17T05:22:16.668Z,11.12
2022-11-17T05:24:43.115Z,11.11
2022-11-17T05:27:10.242Z,11.00
2022-11-17T05:29:36.814Z,11.05
2022-11-17T05:32:03.591Z,10.95
2022-11-17T05:34:30.031Z,10.88
2022-11-17T05:36:56.485Z,10.78
2022-11-17T05:39:22.947Z,10.73
2022-11-17T05:41:49.395Z,10.67
2022-11-17T05:44:16.338Z,10.92
2022-11-17T05:46:42.913Z,10.88
2022-11-17T05:49:09.354Z,10.87
2022-11-17T05:51:35.805Z,11.05
2022-11-17T05:54:02.265Z,11.02
2022-11-17T05:56:54.478Z,11.00
2022-11-17T05:59:39.526Z,10.85
2022-11-17T06:02:11.915Z,11.01
2022-11-17T06:04:40.630Z,10.95
2022-11-17T06:07:07.486Z,11.02
2022-11-17T06:09:36.096Z,11.04
2022-11-17T06:12:05.825Z,11.04
2022-11-17T06:14:33.996Z,11.22
2022-11-17T06:17:08.065Z,11.05
2022-11-17T06:19:39.122Z,11.18
2022-11-17T06:22:13.933Z,11.19
2022-11-17T06:24:44.194Z,11.14
2022-11-17T06:27:12.163Z,11.24
2022-11-17T06:29:44.005Z,11.19
2022-11-17T06:32:13.707Z,11.26
2022-11-17T06:34:40.824Z,11.32
2022-11-17T06:37:07.318Z,11.43
2022-11-17T06:39:33.768Z,11.47
2022-11-17T06:42:00.265Z,11.38
2022-11-17T06:44:26.746Z,11.30
2022-11-17T06:46:53.239Z,11.33
2022-11-17T06:49:19.764Z,11.30
2022-11-17T06:51:46.213Z,11.48
2022-11-17T06:54:13.086Z,11.57
2022-11-17T06:56:39.655Z,11.69
2022-11-17T06:59:06.808Z,11.79
2022-11-17T07:01:33.366Z,11.74
2022-11-17T07:03:59.966Z,11.78
2022-11-17T07:06:26.701Z,11.91
2022-11-17T07:08:56.329Z,11.93
2022-11-17T07:11:23.595Z,11.96
2022-11-17T07:13:50.340Z,11.86
2022-11-17T07:16:23.257Z,12.04
2022-11-17T07:18:53.424Z,12.09
2022-11-17T07:21:20.015Z,12.07
2022-11-17T07:23:49.614Z,12.13
2022-11-17T07:26:17.672Z,12.29
2022-11-17T07:28:44.364Z,12.39
2022-11-17T07:31:10.857Z,12.34
2022-11-17T07:33:37.436Z,12.23
2022-11-17T07:36:09.176Z,12.22
2022-11-17T07:38:36.764Z,12.40
2022-11-17T07:41:04.553Z,12.46
2022-11-17T07:43:31.462Z,12.27
2022-11-17T07:45:57.995Z,12.31
2022-11-17T07:48:24.589Z,12.12
2022-11-17T07:50:51.135Z,12.34
2022-11-17T07:53:17.697Z,12.23
2022-11-17T07:55:44.233Z,12.31
2022-11-17T07:58:11.522Z,12.28
2022-11-17T08:00:38.117Z,12.40
2022-11-17T08:03:05.009Z,12.34
2022-11-17T08:05:39.942Z,12.28
2022-11-17T08:08:09.816Z,12.32
2022-11-17T08:10:36.390Z,12.41
2022-11-17T08:13:02.954Z,12.33
2022-11-17T08:15:29.807Z,12.32
2022-11-17T08:17:58.165Z,12.29
2022-11-17T08:20:26.243Z,12.31
2022-11-17T08:22:53.404Z,12.27
2022-11-17T08:25:20.689Z,12.30
2022-11-17T08:27:47.515Z,12.30
2022-11-17T08:30:14.335Z,12.36
2022-11-17T08:32:46.895Z,12.27
2022-11-17T08:35:13.451Z,12.34
2022-11-17T08:37:43.078Z,12.42
2022-11-17T08:40:10.590Z,12.54
2022-11-17T08:42:37.334Z,12.62
2022-11-17T08:45:05.390Z,12.66
2022-11-17T08:47:32.104Z,12.62
2022-11-17T08:49:58.694Z,12.66
2022-11-17T08:52:28.815Z,12.70
2022-11-17T08:54:55.433Z,12.65
2022-11-17T08:57:22.148Z,12.67
2022-11-17T08:59:49.276Z,12.80
2022-11-17T09:02:18.827Z,12.80
2022-11-17T09:04:45.434Z,12.79
2022-11-17T09:07:12.007Z,12.73
2022-11-17T09:09:38.559Z,12.88
2022-11-17T09:12:05.456Z,12.81
2022-11-17T09:14:32.171Z,12.88
2022-11-17T09:16:58.735Z,12.96
2022-11-17T09:19:26.128Z,12.93
2022-11-17T09:21:52.709Z,12.83
2022-11-17T09:24:19.279Z,12.84
2022-11-17T09:26:45.824Z,12.83
2022-11-17T09:29:12.337Z,12.83
2022-11-17T09:31:39.120Z,12.75
2022-11-17T09:34:06.190Z,12.83
2022-11-17T09:36:33.516Z,12.49
2022-11-17T09:39:00.251Z,12.54
2022-11-17T09:41:48.869Z,12.61
2022-11-17T09:44:36.412Z,12.79
2022-11-17T09:47:25.375Z,12.93
2022-11-17T09:50:06.148Z,13.26
2022-11-17T09:52:37.604Z,13.60
2022-11-17T09:55:34.119Z,13.79
2022-11-17T09:58:38.786Z,14.30
2022-11-17T10:01:10.946Z,14.38
2022-11-17T10:03:43.642Z,14.38
2022-11-17T10:06:15.638Z,14.53
2022-11-17T10:09:25.599Z,14.54
2022-11-17T10:11:54.672Z,14.57
2022-11-17T10:14:21.980Z,14.81
2022-11-17T10:16:58.853Z,14.83
2022-11-17T10:19:30.635Z,14.85
2022-11-17T10:22:02.809Z,14.99
2022-11-17T10:24:48.888Z,15.12
2022-11-17T10:27:23.777Z,15.03
2022-11-17T10:29:57.740Z,14.74
2022-11-17T10:32:24.699Z,14.74
2022-11-17T10:34:51.255Z,14.59
2022-11-17T10:37:27.339Z,14.62
2022-11-17T10:40:11.644Z,14.58
2022-11-17T10:42:38.371Z,14.64
2022-11-17T10:45:05.646Z,14.71
2022-11-17T10:47:39.026Z,14.57
2022-11-17T10:50:25.816Z,14.60
2022-11-17T10:52:53.941Z,14.64
2022-11-17T10:55:25.012Z,14.84
2022-11-17T10:57:55.775Z,14.79
2022-11-17T11:00:33.608Z,14.69
2022-11-17T11:03:16.647Z,14.38
2022-11-17T11:06:21.552Z,14.23
2022-11-17T11:09:15.038Z,13.96
2022-11-17T11:11:41.464Z,14.03
2022-11-17T11:14:30.092Z,13.93
2022-11-17T11:16:56.645Z,13.52
2022-11-17T11:19:23.146Z,13.39
2022-11-17T11:22:08.380Z,13.22
2022-11-17T11:24:42.859Z,12.97
2022-11-17T11:27:34.196Z,12.74
2022-11-17T11:30:04.239Z,12.49
2022-11-17T11:32:42.707Z,12.79
2022-11-17T11:35:33.932Z,13.02
2022-11-17T11:38:15.649Z,13.21
2022-11-17T11:40:44.877Z,13.40
2022-11-17T11:43:20.239Z,13.37
2022-11-17T11:46:08.442Z,13.42
2022-11-17T11:48:35.576Z,13.33
2022-11-17T11:51:05.550Z,13.40
2022-11-17T11:53:43.491Z,13.08
2022-11-17T11:56:35.336Z,13.20
2022-11-17T11:59:06.684Z,13.39
2022-11-17T12:01:45.224Z,13.27
2022-11-17T12:04:21.439Z,13.31
2022-11-17T12:07:10.099Z,13.25
2022-11-17T12:09:57.938Z,13.32
2022-11-17T12:12:35.877Z,13.54
2022-11-17T12:15:20.639Z,13.71
2022-11-17T12:17:59.983Z,13.80
2022-11-17T12:20:38.516Z,13.69
2022-11-17T12:23:14.893Z,13.86
2022-11-17T12:25:53.715Z,13.92
2022-11-17T12:28:36.307Z,13.71
2022-11-17T12:31:09.857Z,13.44
2022-11-17T12:33:51.758Z,13.48
2022-11-17T12:36:29.760Z,13.35
2022-11-17T12:39:01.516Z,13.29
2022-11-17T12:41:50.140Z,13.23
2022-11-17T12:44:43.262Z,13.10
2022-11-17T12:47:40.641Z,13.05
2022-11-17T12:50:21.943Z,13.16
2022-11-17T12:53:14.343Z,13.03
2022-11-17T12:55:53.217Z,13.07
2022-11-17T12:58:46.223Z,13.28
2022-11-17T13:01:20.277Z,13.24
2022-11-17T13:03:55.663Z,13.02
2022-11-17T13:06:37.503Z,13.02
2022-11-17T13:09:07.707Z,13.11
2022-11-17T13:11:34.620Z,13.32
2022-11-17T13:14:15.585Z,13.82
2022-11-17T13:16:50.321Z,14.40
2022-11-17T13:19:42.046Z,14.92
2022-11-17T13:22:11.274Z,15.24
2022-11-17T13:24:39.634Z,15.32
2022-11-17T13:27:16.960Z,15.40
2022-11-17T13:29:43.567Z,15.07
2022-11-17T13:32:20.246Z,14.99
2022-11-17T13:34:52.757Z,15.12
2022-11-17T13:37:22.108Z,15.08
2022-11-17T13:40:00.243Z,15.12
2022-11-17T13:42:30.321Z,14.94
2022-11-17T13:44:59.919Z,14.92
2022-11-17T13:47:40.265Z,14.76
2022-11-17T13:50:28.726Z,14.92
2022-11-17T13:53:12.682Z,15.02
2022-11-17T13:55:49.036Z,15.27
2022-11-17T13:58:30.755Z,15.69
2022-11-17T14:00:58.491Z,15.88
2022-11-17T14:03:41.944Z,16.00
2022-11-17T14:06:10.417Z,16.10
2022-11-17T14:08:38.208Z,16.16
2022-11-17T14:11:06.131Z,16.01
2022-11-17T14:14:11.781Z,16.01
2022-11-17T14:16:40.310Z,16.03
2022-11-17T14:19:16.117Z,15.81
2022-11-17T14:22:00.937Z,15.83
2022-11-17T14:24:27.797Z,15.89
2022-11-17T14:26:54.312Z,15.92
2022-11-17T14:29:22.076Z,15.85
2022-11-17T14:31:48.560Z,16.00
2022-11-17T14:34:15.326Z,16.23
2022-11-17T14:36:44.333Z,16.19
2022-11-17T14:39:13.506Z,16.31
2022-11-17T14:41:40.259Z,16.16
2022-11-17T14:44:06.836Z,16.33
2022-11-17T14:46:33.679Z,16.22
2022-11-17T14:49:00.180Z,16.01
2022-11-17T14:51:27.116Z,15.76
2022-11-17T14:53:53.736Z,15.62
2022-11-17T14:56:21.398Z,15.55
2022-11-17T14:58:49.269Z,15.67
2022-11-17T15:01:21.330Z,15.58
2022-11-17T15:03:47.933Z,15.46
2022-11-17T15:06:19.352Z,15.37
2022-11-17T15:08:47.049Z,15.37
2022-11-17T15:11:17.032Z,15.14
2022-11-17T15:13:43.536Z,15.10
2022-11-17T15:16:10.509Z,14.96
2022-11-17T15:18:37.029Z,14.90
2022-11-17T15:21:09.538Z,14.79
2022-11-17T15:23:37.714Z,14.64
2022-11-17T15:26:07.150Z,14.48
2022-11-17T15:28:33.951Z,14.35
2022-11-17T15:31:11.245Z,14.38
2022-11-17T15:33:38.636Z,14.34
2022-11-17T15:36:05.891Z,14.21
2022-11-17T15:38:32.380Z,13.96
2022-11-17T15:40:58.891Z,13.83
2022-11-17T15:43:30.110Z,13.46
2022-11-17T15:46:04.637Z,13.42
2022-11-17T15:48:33.449Z,13.21
2022-11-17T15:51:02.012Z,13.21
2022-11-17T15:53:32.337Z,13.24
2022-11-17T15:56:23.202Z,13.21
2022-11-17T15:58:54.841Z,13.26
2022-11-17T16:01:24.536Z,13.51
2022-11-17T16:03:51.701Z,13.28
2022-11-17T16:06:18.600Z,13.26
2022-11-17T16:08:45.190Z,13.42
2022-11-17T16:11:13.478Z,13.39
2022-11-17T16:13:40.144Z,13.24
2022-11-17T16:16:07.887Z,13.35
2022-11-17T16:18:34.745Z,13.27
2022-11-17T16:21:10.481Z,13.21
2022-11-17T16:23:49.900Z,13.31
2022-11-17T16:26:18.000Z,13.32
2022-11-17T16:28:44.889Z,13.46
2022-11-17T16:31:22.688Z,13.44
2022-11-17T16:33:56.767Z,13.53
2022-11-17T16:36:28.082Z,13.65
2022-11-17T16:39:01.591Z,13.70
2022-11-17T16:41:31.841Z,13.77
2022-11-17T16:43:58.490Z,13.80
2022-11-17T16:46:28.762Z,13.76
2022-11-17T16:48:56.124Z,13.88
2022-11-17T16:51:23.851Z,13.90
2022-11-17T16:54:05.644Z,14.08
2022-11-17T16:56:34.035Z,14.13
2022-11-17T16:59:01.188Z,14.03
2022-11-17T17:01:37.238Z,13.96
2022-11-17T17:04:06.062Z,13.88
2022-11-17T17:06:34.992Z,13.92
2022-11-17T17:09:04.155Z,13.91
2022-11-17T17:11:32.412Z,13.92
2022-11-17T17:14:00.098Z,13.90
2022-11-17T17:16:26.800Z,13.93
2022-11-17T17:18:57.527Z,14.02
2022-11-17T17:21:27.651Z,14.01
2022-11-17T17:23:54.675Z,14.06
2022-11-17T17:26:25.484Z,14.06
2022-11-17T17:28:55.114Z,14.05
2022-11-17T17:31:32.068Z,14.14
2022-11-17T17:33:59.191Z,14.05
2022-11-17T17:36:26.416Z,13.97
2022-11-17T17:38:57.882Z,13.92
2022-11-17T17:41:26.490Z,13.75
2022-11-17T17:44:04.681Z,13.80
2022-11-17T17:46:34.577Z,13.86
2022-11-17T17:49:01.171Z,13.79
2022-11-17T17:51:29.082Z,13.88
2022-11-17T17:53:58.463Z,13.97
2022-11-17T17:56:28.923Z,13.90
2022-11-17T17:58:55.882Z,13.80
2022-11-17T18:01:31.941Z,13.77
2022-11-17T18:04:00.208Z,13.80
2022-11-17T18:06:26.756Z,13.64
2022-11-17T18:08:53.402Z,13.55
2022-11-17T18:11:20.915Z,13.35
2022-11-17T18:13:49.404Z,13.09
2022-11-17T18:16:19.074Z,12.48
2022-11-17T18:18:45.648Z,12.05
2022-11-17T18:21:15.431Z,11.52
2022-11-17T18:23:42.496Z,11.24
2022-11-17T18:26:13.161Z,11.04
2022-11-17T18:28:39.988Z,10.95
2022-11-17T18:31:07.014Z,10.89
2022-11-17T18:33:33.610Z,10.93
2022-11-17T18:36:07.664Z,11.08
2022-11-17T18:38:36.279Z,10.95
2022-11-17T18:41:13.790Z,10.90
2022-11-17T18:43:40.574Z,10.88
2022-11-17T18:46:09.688Z,11.00
2022-11-17T18:48:39.093Z,11.12
2022-11-17T18:51:20.035Z,11.21
2022-11-17T18:53:50.431Z,11.22
2022-11-17T18:56:20.870Z,11.08
2022-11-17T18:58:47.692Z,11.03
2022-11-17T19:01:24.435Z,10.87
2022-11-17T19:03:53.589Z,10.86
2022-11-17T19:06:21.852Z,10.92
2022-11-17T19:08:49.092Z,10.89
2022-11-17T19:11:16.693Z,10.93
2022-11-17T19:13:43.794Z,11.00
2022-11-17T19:16:17.724Z,10.96
2022-11-17T19:18:45.168Z,10.95
2022-11-17T19:21:17.004Z,10.88
2022-11-17T19:23:50.778Z,10.77
2022-11-17T19:26:20.508Z,10.78
2022-11-17T19:28:47.553Z,10.82
2022-11-17T19:31:15.863Z,10.77
2022-11-17T19:33:43.004Z,10.88
2022-11-17T19:36:11.757Z,10.90
2022-11-17T19:38:39.253Z,11.00
2022-11-17T19:41:07.562Z,10.85
2022-11-17T19:43:34.581Z,10.93
2022-11-17T19:46:02.990Z,11.05
2022-11-17T19:48:30.423Z,11.11
2022-11-17T19:50:58.076Z,11.22
2022-11-17T19:53:24.992Z,11.36
2022-11-17T19:55:51.910Z,11.33
2022-11-17T19:58:20.443Z,11.45
2022-11-17T20:00:47.722Z,11.45
2022-11-17T20:03:15.416Z,11.38
2022-11-17T20:05:42.049Z,11.32
2022-11-17T20:08:08.679Z,11.33
2022-11-17T20:10:35.218Z,11.39
2022-11-17T20:13:01.817Z,11.37
2022-11-17T20:15:34.458Z,11.43
2022-11-17T20:18:01.972Z,11.53
2022-11-17T20:20:28.507Z,11.49
2022-11-17T20:22:55.726Z,11.46
2022-11-17T20:25:22.212Z,11.54
2022-11-17T20:27:48.781Z,11.71
2022-11-17T20:30:15.739Z,11.84
2022-11-17T20:32:42.519Z,12.04
2022-11-17T20:35:09.168Z,11.87
2022-11-17T20:37:35.662Z,12.04
2022-11-17T20:40:02.183Z,12.18
2022-11-17T20:42:28.941Z,12.09
2022-11-17T20:44:55.477Z,11.90
2022-11-17T20:47:22.007Z,11.72
2022-11-17T20:49:48.528Z,11.76
2022-11-17T20:52:15.174Z,11.85
2022-11-17T20:54:41.746Z,11.83
2022-11-17T20:57:08.633Z,11.85
2022-11-17T20:59:35.122Z,11.93
2022-11-17T21:02:04.652Z,12.00
2022-11-17T21:04:31.133Z,11.96
2022-11-17T21:06:57.707Z,11.96
2022-11-17T21:09:24.220Z,11.87
2022-11-17T21:11:50.704Z,11.78
2022-11-17T21:14:17.182Z,11.67
2022-11-17T21:16:44.555Z,11.62
2022-11-17T21:19:12.341Z,11.43
2022-11-17T21:21:38.897Z,11.36
2022-11-17T21:24:05.749Z,11.41
2022-11-17T21:26:32.506Z,11.41
2022-11-17T21:29:04.760Z,11.35
2022-11-17T21:31:33.360Z,11.44
2022-11-17T21:34:01.728Z,11.54
2022-11-17T21:36:30.004Z,11.48
2022-11-17T21:38:59.743Z,11.63
2022-11-17T21:41:28.593Z,11.51
2022-11-17T21:43:58.660Z,11.65
2022-11-17T21:46:27.116Z,11.63
2022-11-17T21:48:56.821Z,11.68
2022-11-17T21:54:07.479Z,11.72
2022-11-17T21:56:34.116Z,11.79
2022-11-17T21:59:06.682Z,11.57
2022-11-17T22:01:33.817Z,11.50
2022-11-17T22:04:00.405Z,11.59
2022-11-17T22:06:27.197Z,11.34
2022-11-17T22:08:54.991Z,11.30
2022-11-17T22:11:23.686Z,11.07
2022-11-17T22:13:50.176Z,11.17
2022-11-17T22:16:16.675Z,11.03
2022-11-17T22:18:43.153Z,11.07
2022-11-17T22:21:09.665Z,11.26
2022-11-17T22:23:36.396Z,11.35
2022-11-17T22:26:05.343Z,11.36
2022-11-17T22:28:32.171Z,11.22
2022-11-17T22:31:04.073Z,11.34
2022-11-17T22:33:30.658Z,11.35
2022-11-17T22:36:00.660Z,11.44
2022-11-17T22:38:27.228Z,11.43
2022-11-17T22:40:59.260Z,11.40
2022-11-17T22:43:25.809Z,11.35
2022-11-17T22:45:52.360Z,11.35
2022-11-17T22:48:19.126Z,11.40
2022-11-17T22:50:45.590Z,11.28
2022-11-17T22:53:14.197Z,11.27
2022-11-17T22:55:40.696Z,11.43
2022-11-17T22:58:07.199Z,11.37
2022-11-17T23:00:33.805Z,11.30
2022-11-17T23:03:00.363Z,11.27
2022-11-17T23:05:27.072Z,11.32
2022-11-17T23:07:54.669Z,11.21
2022-11-17T23:10:21.226Z,11.25
2022-11-17T23:12:47.723Z,11.33
2022-11-17T23:15:14.295Z,11.20
2022-11-17T23:17:40.799Z,11.10
2022-11-17T23:20:08.211Z,11.04
2022-11-17T23:22:34.763Z,11.06
2022-11-17T23:25:01.920Z,11.04
2022-11-17T23:27:28.499Z,11.04
2022-11-17T23:29:55.033Z,10.90
2022-11-17T23:32:21.734Z,10.76
2022-11-17T23:34:48.223Z,10.60
2022-11-17T23:37:14.844Z,10.49
2022-11-17T23:39:41.337Z,10.49
2022-11-17T23:42:07.846Z,10.28
2022-11-17T23:44:34.382Z,10.18
2022-11-17T23:47:00.986Z,10.12
2022-11-17T23:49:27.486Z,10.11
2022-11-17T23:51:54.034Z,10.09
2022-11-17T23:54:20.581Z,10.11
2022-11-17T23:56:47.363Z,10.02
2022-11-17T23:59:13.934Z,10.10
